Terminal Aerodrome Forecast
Issued by NWS Goodland, KS

Home | Current Version | Previous Version | Text Only | Print | Product List | Glossary On
Versions: 1 2 3 4 5 6 7 8 9 10 11 12 13 14 15 16 17 18 19 20 21 22
000
FTUS43 KGLD 050346 AAD
TAFGLD
TAF AMD
KGLD 050346Z 0504/0524 07011KT P6SM BKN013 BKN030 OVC050
     FM050900 10009KT 4SM BR VCSH BKN007
     FM051600 14015G23KT P6SM VCSH OVC008=

USA.gov is the U.S. government's official web portal to all federal, state and local government web resources and services.